sensor_id;sensor_type;location;lat;lon;timestamp;P1;durP1;ratioP1;P2;durP2;ratioP2
18316;SDS011;9284;52.298;21.164;2024-01-25T00:01:04;11.30;;;2.78;;
18316;SDS011;9284;52.298;21.164;2024-01-25T00:03:33;7.40;;;3.53;;
18316;SDS011;9284;52.298;21.164;2024-01-25T00:06:01;14.95;;;3.08;;
18316;SDS011;9284;52.298;21.164;2024-01-25T00:08:30;6.70;;;2.42;;
18316;SDS011;9284;52.298;21.164;2024-01-25T00:10:59;19.55;;;3.35;;
18316;SDS011;9284;52.298;21.164;2024-01-25T00:13:28;7.43;;;2.88;;
18316;SDS011;9284;52.298;21.164;2024-01-25T00:15:57;9.85;;;3.08;;
18316;SDS011;9284;52.298;21.164;2024-01-25T00:18:25;10.43;;;2.85;;
18316;SDS011;9284;52.298;21.164;2024-01-25T00:20:56;10.50;;;2.42;;
18316;SDS011;9284;52.298;21.164;2024-01-25T00:23:25;8.10;;;3.33;;
18316;SDS011;9284;52.298;21.164;2024-01-25T00:25:54;13.95;;;3.28;;
18316;SDS011;9284;52.298;21.164;2024-01-25T00:28:24;9.38;;;2.63;;
18316;SDS011;9284;52.298;21.164;2024-01-25T00:30:54;9.02;;;2.88;;
18316;SDS011;9284;52.298;21.164;2024-01-25T00:33:22;9.82;;;2.50;;
18316;SDS011;9284;52.298;21.164;2024-01-25T00:35:51;9.98;;;2.20;;
18316;SDS011;9284;52.298;21.164;2024-01-25T00:38:20;9.38;;;2.13;;
18316;SDS011;9284;52.298;21.164;2024-01-25T00:40:49;6.68;;;2.10;;
18316;SDS011;9284;52.298;21.164;2024-01-25T00:43:18;6.83;;;2.13;;
18316;SDS011;9284;52.298;21.164;2024-01-25T00:45:46;8.50;;;1.83;;
18316;SDS011;9284;52.298;21.164;2024-01-25T00:48:17;10.63;;;2.13;;
18316;SDS011;9284;52.298;21.164;2024-01-25T00:50:46;5.88;;;2.08;;
18316;SDS011;9284;52.298;21.164;2024-01-25T00:53:16;9.55;;;1.80;;
18316;SDS011;9284;52.298;21.164;2024-01-25T00:55:45;5.68;;;1.60;;
18316;SDS011;9284;52.298;21.164;2024-01-25T00:58:14;8.38;;;2.17;;
18316;SDS011;9284;52.298;21.164;2024-01-25T01:00:43;7.78;;;2.20;;
18316;SDS011;9284;52.298;21.164;2024-01-25T01:03:11;8.10;;;1.95;;
18316;SDS011;9284;52.298;21.164;2024-01-25T01:05:43;8.05;;;2.10;;
18316;SDS011;9284;52.298;21.164;2024-01-25T01:08:12;5.25;;;2.08;;
18316;SDS011;9284;52.298;21.164;2024-01-25T01:10:41;3.80;;;1.83;;
18316;SDS011;9284;52.298;21.164;2024-01-25T01:13:09;6.90;;;2.10;;
18316;SDS011;9284;52.298;21.164;2024-01-25T01:15:37;3.88;;;1.35;;
18316;SDS011;9284;52.298;21.164;2024-01-25T01:18:05;8.27;;;1.80;;
18316;SDS011;9284;52.298;21.164;2024-01-25T01:20:34;7.43;;;1.92;;
18316;SDS011;9284;52.298;21.164;2024-01-25T01:23:04;6.65;;;1.75;;
18316;SDS011;9284;52.298;21.164;2024-01-25T01:25:32;7.80;;;1.75;;
18316;SDS011;9284;52.298;21.164;2024-01-25T01:28:00;8.85;;;1.98;;
18316;SDS011;9284;52.298;21.164;2024-01-25T01:30:29;6.03;;;1.75;;
18316;SDS011;9284;52.298;21.164;2024-01-25T01:32:57;9.23;;;1.92;;
18316;SDS011;9284;52.298;21.164;2024-01-25T01:35:26;4.28;;;1.77;;
18316;SDS011;9284;52.298;21.164;2024-01-25T01:37:54;5.93;;;2.58;;
18316;SDS011;9284;52.298;21.164;2024-01-25T01:40:24;6.55;;;2.15;;
18316;SDS011;9284;52.298;21.164;2024-01-25T01:42:58;11.98;;;2.30;;
18316;SDS011;9284;52.298;21.164;2024-01-25T01:45:28;13.18;;;2.95;;
18316;SDS011;9284;52.298;21.164;2024-01-25T01:47:56;13.80;;;2.60;;
18316;SDS011;9284;52.298;21.164;2024-01-25T01:50:26;10.50;;;2.33;;
18316;SDS011;9284;52.298;21.164;2024-01-25T01:52:55;9.85;;;2.47;;
18316;SDS011;9284;52.298;21.164;2024-01-25T01:55:25;7.88;;;1.90;;
18316;SDS011;9284;52.298;21.164;2024-01-25T01:57:54;9.52;;;2.00;;
18316;SDS011;9284;52.298;21.164;2024-01-25T02:00:23;13.38;;;2.75;;
18316;SDS011;9284;52.298;21.164;2024-01-25T02:02:52;11.73;;;2.13;;
18316;SDS011;9284;52.298;21.164;2024-01-25T02:05:21;10.40;;;2.80;;
18316;SDS011;9284;52.298;21.164;2024-01-25T02:07:49;11.38;;;2.58;;
18316;SDS011;9284;52.298;21.164;2024-01-25T02:10:19;12.07;;;2.80;;
18316;SDS011;9284;52.298;21.164;2024-01-25T02:12:48;8.85;;;2.30;;
18316;SDS011;9284;52.298;21.164;2024-01-25T02:15:17;8.68;;;2.47;;
18316;SDS011;9284;52.298;21.164;2024-01-25T02:17:46;12.82;;;2.72;;
18316;SDS011;9284;52.298;21.164;2024-01-25T02:20:17;6.90;;;2.00;;
18316;SDS011;9284;52.298;21.164;2024-01-25T02:22:47;8.10;;;2.00;;
18316;SDS011;9284;52.298;21.164;2024-01-25T02:25:15;6.28;;;2.10;;
18316;SDS011;9284;52.298;21.164;2024-01-25T02:27:44;6.85;;;1.90;;
18316;SDS011;9284;52.298;21.164;2024-01-25T02:30:12;9.32;;;2.30;;
18316;SDS011;9284;52.298;21.164;2024-01-25T02:32:42;12.95;;;2.92;;
18316;SDS011;9284;52.298;21.164;2024-01-25T02:35:10;8.75;;;2.03;;
18316;SDS011;9284;52.298;21.164;2024-01-25T02:37:39;8.85;;;2.33;;
18316;SDS011;9284;52.298;21.164;2024-01-25T02:40:09;10.43;;;2.17;;
18316;SDS011;9284;52.298;21.164;2024-01-25T02:42:38;10.10;;;2.40;;
18316;SDS011;9284;52.298;21.164;2024-01-25T02:45:07;11.57;;;2.50;;
18316;SDS011;9284;52.298;21.164;2024-01-25T02:47:35;11.30;;;2.25;;
18316;SDS011;9284;52.298;21.164;2024-01-25T02:50:04;8.45;;;2.28;;
18316;SDS011;9284;52.298;21.164;2024-01-25T02:52:33;8.82;;;2.28;;
18316;SDS011;9284;52.298;21.164;2024-01-25T02:55:02;14.35;;;3.03;;
18316;SDS011;9284;52.298;21.164;2024-01-25T02:57:32;12.30;;;2.50;;
18316;SDS011;9284;52.298;21.164;2024-01-25T03:00:00;13.90;;;2.40;;
18316;SDS011;9284;52.298;21.164;2024-01-25T03:02:29;11.63;;;2.83;;
18316;SDS011;9284;52.298;21.164;2024-01-25T03:04:58;10.47;;;2.53;;
18316;SDS011;9284;52.298;21.164;2024-01-25T03:07:26;10.07;;;2.10;;
18316;SDS011;9284;52.298;21.164;2024-01-25T03:09:54;10.93;;;2.30;;
18316;SDS011;9284;52.298;21.164;2024-01-25T03:12:23;13.32;;;3.40;;
18316;SDS011;9284;52.298;21.164;2024-01-25T03:14:53;20.98;;;3.25;;
18316;SDS011;9284;52.298;21.164;2024-01-25T03:17:21;13.27;;;3.03;;
18316;SDS011;9284;52.298;21.164;2024-01-25T03:19:49;9.70;;;2.65;;
18316;SDS011;9284;52.298;21.164;2024-01-25T03:22:18;8.47;;;2.90;;
18316;SDS011;9284;52.298;21.164;2024-01-25T03:24:46;13.18;;;2.80;;
18316;SDS011;9284;52.298;21.164;2024-01-25T03:27:14;14.13;;;3.22;;
18316;SDS011;9284;52.298;21.164;2024-01-25T03:29:43;14.35;;;2.90;;
18316;SDS011;9284;52.298;21.164;2024-01-25T03:32:13;11.43;;;2.45;;
18316;SDS011;9284;52.298;21.164;2024-01-25T03:34:41;11.90;;;2.73;;
18316;SDS011;9284;52.298;21.164;2024-01-25T03:37:10;9.13;;;2.37;;
18316;SDS011;9284;52.298;21.164;2024-01-25T03:39:39;12.70;;;2.20;;
18316;SDS011;9284;52.298;21.164;2024-01-25T03:42:07;17.63;;;2.97;;
18316;SDS011;9284;52.298;21.164;2024-01-25T03:44:35;10.97;;;2.90;;
18316;SDS011;9284;52.298;21.164;2024-01-25T03:47:04;12.70;;;2.83;;
18316;SDS011;9284;52.298;21.164;2024-01-25T03:49:33;14.47;;;2.60;;
18316;SDS011;9284;52.298;21.164;2024-01-25T03:52:02;11.47;;;2.70;;
18316;SDS011;9284;52.298;21.164;2024-01-25T03:54:31;11.30;;;3.83;;
18316;SDS011;9284;52.298;21.164;2024-01-25T03:56:59;13.97;;;2.63;;
18316;SDS011;9284;52.298;21.164;2024-01-25T03:59:27;16.20;;;3.53;;
18316;SDS011;9284;52.298;21.164;2024-01-25T04:01:56;10.67;;;3.37;;
18316;SDS011;9284;52.298;21.164;2024-01-25T04:04:24;11.90;;;3.23;;
18316;SDS011;9284;52.298;21.164;2024-01-25T04:06:54;13.37;;;3.60;;
18316;SDS011;9284;52.298;21.164;2024-01-25T04:09:22;18.40;;;3.70;;
18316;SDS011;9284;52.298;21.164;2024-01-25T04:11:51;13.07;;;3.28;;
18316;SDS011;9284;52.298;21.164;2024-01-25T04:14:19;15.35;;;3.78;;
18316;SDS011;9284;52.298;21.164;2024-01-25T04:16:48;12.63;;;3.55;;
18316;SDS011;9284;52.298;21.164;2024-01-25T04:19:17;11.67;;;3.23;;
18316;SDS011;9284;52.298;21.164;2024-01-25T04:21:45;15.68;;;4.30;;
18316;SDS011;9284;52.298;21.164;2024-01-25T04:24:15;14.07;;;3.83;;
18316;SDS011;9284;52.298;21.164;2024-01-25T04:26:44;14.60;;;4.03;;
18316;SDS011;9284;52.298;21.164;2024-01-25T04:29:12;14.27;;;3.53;;
18316;SDS011;9284;52.298;21.164;2024-01-25T04:31:42;12.70;;;3.10;;
18316;SDS011;9284;52.298;21.164;2024-01-25T04:34:12;11.67;;;3.20;;
18316;SDS011;9284;52.298;21.164;2024-01-25T04:36:41;20.60;;;4.00;;
18316;SDS011;9284;52.298;21.164;2024-01-25T04:39:10;15.13;;;4.13;;
18316;SDS011;9284;52.298;21.164;2024-01-25T04:41:40;12.70;;;3.07;;
18316;SDS011;9284;52.298;21.164;2024-01-25T04:44:08;19.37;;;3.50;;
18316;SDS011;9284;52.298;21.164;2024-01-25T04:46:36;11.87;;;3.80;;
18316;SDS011;9284;52.298;21.164;2024-01-25T04:49:04;20.17;;;3.93;;
18316;SDS011;9284;52.298;21.164;2024-01-25T04:51:33;13.95;;;3.03;;
18316;SDS011;9284;52.298;21.164;2024-01-25T04:54:02;15.30;;;3.97;;
18316;SDS011;9284;52.298;21.164;2024-01-25T04:56:30;13.03;;;3.57;;
18316;SDS011;9284;52.298;21.164;2024-01-25T04:59:00;20.40;;;4.50;;
18316;SDS011;9284;52.298;21.164;2024-01-25T05:01:28;12.50;;;3.57;;
18316;SDS011;9284;52.298;21.164;2024-01-25T05:03:57;14.60;;;3.37;;
18316;SDS011;9284;52.298;21.164;2024-01-25T05:06:25;15.60;;;3.23;;
18316;SDS011;9284;52.298;21.164;2024-01-25T05:08:53;18.03;;;3.73;;
18316;SDS011;9284;52.298;21.164;2024-01-25T05:11:22;17.52;;;4.43;;
18316;SDS011;9284;52.298;21.164;2024-01-25T05:13:50;10.10;;;3.17;;
18316;SDS011;9284;52.298;21.164;2024-01-25T05:16:20;13.87;;;3.10;;
18316;SDS011;9284;52.298;21.164;2024-01-25T05:18:48;14.30;;;3.30;;
18316;SDS011;9284;52.298;21.164;2024-01-25T05:21:17;11.53;;;2.77;;
18316;SDS011;9284;52.298;21.164;2024-01-25T05:23:45;8.67;;;2.63;;
18316;SDS011;9284;52.298;21.164;2024-01-25T05:26:13;15.68;;;5.53;;
18316;SDS011;9284;52.298;21.164;2024-01-25T05:28:43;7.68;;;3.25;;
18316;SDS011;9284;52.298;21.164;2024-01-25T05:31:11;10.37;;;3.43;;
18316;SDS011;9284;52.298;21.164;2024-01-25T05:33:41;11.10;;;3.30;;
18316;SDS011;9284;52.298;21.164;2024-01-25T05:36:10;15.40;;;3.40;;
18316;SDS011;9284;52.298;21.164;2024-01-25T05:38:38;9.77;;;3.20;;
18316;SDS011;9284;52.298;21.164;2024-01-25T05:41:07;11.43;;;3.33;;
18316;SDS011;9284;52.298;21.164;2024-01-25T05:43:35;6.27;;;2.50;;
18316;SDS011;9284;52.298;21.164;2024-01-25T05:46:03;9.57;;;2.73;;
18316;SDS011;9284;52.298;21.164;2024-01-25T05:48:32;15.07;;;2.97;;
18316;SDS011;9284;52.298;21.164;2024-01-25T05:51:02;11.00;;;2.97;;
18316;SDS011;9284;52.298;21.164;2024-01-25T05:53:30;12.13;;;3.63;;
18316;SDS011;9284;52.298;21.164;2024-01-25T05:55:58;8.27;;;2.87;;
18316;SDS011;9284;52.298;21.164;2024-01-25T05:58:27;7.33;;;2.73;;
18316;SDS011;9284;52.298;21.164;2024-01-25T06:00:55;11.02;;;2.65;;
18316;SDS011;9284;52.298;21.164;2024-01-25T06:03:23;10.40;;;2.53;;
18316;SDS011;9284;52.298;21.164;2024-01-25T06:05:51;11.30;;;2.50;;
18316;SDS011;9284;52.298;21.164;2024-01-25T06:08:21;13.55;;;2.70;;
18316;SDS011;9284;52.298;21.164;2024-01-25T06:10:50;5.72;;;2.17;;
18316;SDS011;9284;52.298;21.164;2024-01-25T06:13:18;11.52;;;2.60;;
18316;SDS011;9284;52.298;21.164;2024-01-25T06:15:46;6.80;;;2.17;;
18316;SDS011;9284;52.298;21.164;2024-01-25T06:18:14;13.73;;;2.75;;
18316;SDS011;9284;52.298;21.164;2024-01-25T06:20:43;7.80;;;2.97;;
18316;SDS011;9284;52.298;21.164;2024-01-25T06:23:11;10.80;;;3.07;;
18316;SDS011;9284;52.298;21.164;2024-01-25T06:25:41;9.23;;;2.27;;
18316;SDS011;9284;52.298;21.164;2024-01-25T06:28:09;6.82;;;2.33;;
18316;SDS011;9284;52.298;21.164;2024-01-25T06:30:38;6.83;;;2.00;;
18316;SDS011;9284;52.298;21.164;2024-01-25T06:33:06;8.20;;;2.47;;
18316;SDS011;9284;52.298;21.164;2024-01-25T06:35:34;6.67;;;2.57;;
18316;SDS011;9284;52.298;21.164;2024-01-25T06:38:03;10.30;;;2.47;;
18316;SDS011;9284;52.298;21.164;2024-01-25T06:40:31;9.90;;;2.80;;
18316;SDS011;9284;52.298;21.164;2024-01-25T06:43:01;10.27;;;3.03;;
18316;SDS011;9284;52.298;21.164;2024-01-25T06:45:30;8.80;;;2.40;;
18316;SDS011;9284;52.298;21.164;2024-01-25T06:47:58;11.00;;;3.63;;
18316;SDS011;9284;52.298;21.164;2024-01-25T06:50:27;8.98;;;2.72;;
18316;SDS011;9284;52.298;21.164;2024-01-25T06:52:55;18.02;;;3.63;;
18316;SDS011;9284;52.298;21.164;2024-01-25T06:55:24;8.53;;;2.57;;
18316;SDS011;9284;52.298;21.164;2024-01-25T06:57:52;13.77;;;2.90;;
18316;SDS011;9284;52.298;21.164;2024-01-25T07:00:22;12.88;;;3.13;;
18316;SDS011;9284;52.298;21.164;2024-01-25T07:02:51;9.80;;;2.60;;
18316;SDS011;9284;52.298;21.164;2024-01-25T07:05:19;14.30;;;3.10;;
18316;SDS011;9284;52.298;21.164;2024-01-25T07:07:48;8.17;;;2.67;;
18316;SDS011;9284;52.298;21.164;2024-01-25T07:10:16;8.30;;;2.13;;
18316;SDS011;9284;52.298;21.164;2024-01-25T07:12:45;9.50;;;3.00;;
18316;SDS011;9284;52.298;21.164;2024-01-25T07:15:13;10.40;;;2.53;;
18316;SDS011;9284;52.298;21.164;2024-01-25T07:17:43;7.33;;;2.43;;
18316;SDS011;9284;52.298;21.164;2024-01-25T07:20:11;12.47;;;2.50;;
18316;SDS011;9284;52.298;21.164;2024-01-25T07:22:40;16.00;;;2.80;;
18316;SDS011;9284;52.298;21.164;2024-01-25T07:25:09;10.57;;;2.50;;
18316;SDS011;9284;52.298;21.164;2024-01-25T07:27:38;8.38;;;2.65;;
18316;SDS011;9284;52.298;21.164;2024-01-25T07:30:07;6.03;;;2.97;;
18316;SDS011;9284;52.298;21.164;2024-01-25T07:32:36;9.70;;;4.03;;
18316;SDS011;9284;52.298;21.164;2024-01-25T07:35:07;9.15;;;3.10;;
18316;SDS011;9284;52.298;21.164;2024-01-25T07:37:36;10.90;;;2.90;;
18316;SDS011;9284;52.298;21.164;2024-01-25T07:40:05;11.97;;;2.83;;
18316;SDS011;9284;52.298;21.164;2024-01-25T07:42:34;13.63;;;2.87;;
18316;SDS011;9284;52.298;21.164;2024-01-25T07:45:03;8.70;;;3.00;;
18316;SDS011;9284;52.298;21.164;2024-01-25T07:47:32;14.97;;;3.60;;
18316;SDS011;9284;52.298;21.164;2024-01-25T07:50:00;8.60;;;3.50;;
18316;SDS011;9284;52.298;21.164;2024-01-25T07:52:31;6.40;;;2.70;;
18316;SDS011;9284;52.298;21.164;2024-01-25T07:54:59;10.03;;;3.07;;
18316;SDS011;9284;52.298;21.164;2024-01-25T07:57:31;12.90;;;3.60;;
18316;SDS011;9284;52.298;21.164;2024-01-25T07:59:59;9.10;;;3.40;;
18316;SDS011;9284;52.298;21.164;2024-01-25T08:02:30;11.13;;;2.63;;
18316;SDS011;9284;52.298;21.164;2024-01-25T08:04:58;5.43;;;2.23;;
18316;SDS011;9284;52.298;21.164;2024-01-25T08:07:28;9.17;;;3.30;;
18316;SDS011;9284;52.298;21.164;2024-01-25T08:09:58;8.60;;;3.00;;
18316;SDS011;9284;52.298;21.164;2024-01-25T08:12:26;6.33;;;3.20;;
18316;SDS011;9284;52.298;21.164;2024-01-25T08:14:54;9.57;;;3.70;;
18316;SDS011;9284;52.298;21.164;2024-01-25T08:17:22;11.15;;;3.47;;
18316;SDS011;9284;52.298;21.164;2024-01-25T08:19:51;8.43;;;3.13;;
18316;SDS011;9284;52.298;21.164;2024-01-25T08:22:19;9.30;;;3.83;;
18316;SDS011;9284;52.298;21.164;2024-01-25T08:24:49;10.88;;;4.53;;
18316;SDS011;9284;52.298;21.164;2024-01-25T08:27:18;7.88;;;4.00;;
18316;SDS011;9284;52.298;21.164;2024-01-25T08:29:47;11.48;;;4.20;;
18316;SDS011;9284;52.298;21.164;2024-01-25T08:32:15;8.57;;;3.67;;
18316;SDS011;9284;52.298;21.164;2024-01-25T08:34:43;7.22;;;3.17;;
18316;SDS011;9284;52.298;21.164;2024-01-25T08:37:12;5.90;;;3.23;;
18316;SDS011;9284;52.298;21.164;2024-01-25T08:39:40;10.50;;;3.20;;
18316;SDS011;9284;52.298;21.164;2024-01-25T08:42:09;8.73;;;2.87;;
18316;SDS011;9284;52.298;21.164;2024-01-25T08:44:39;8.30;;;3.37;;
18316;SDS011;9284;52.298;21.164;2024-01-25T08:47:16;9.70;;;3.00;;
18316;SDS011;9284;52.298;21.164;2024-01-25T08:49:45;6.50;;;2.53;;
18316;SDS011;9284;52.298;21.164;2024-01-25T08:52:13;5.07;;;2.60;;
18316;SDS011;9284;52.298;21.164;2024-01-25T08:54:42;7.03;;;2.77;;
18316;SDS011;9284;52.298;21.164;2024-01-25T08:57:10;5.97;;;2.80;;
18316;SDS011;9284;52.298;21.164;2024-01-25T08:59:42;7.03;;;3.17;;
18316;SDS011;9284;52.298;21.164;2024-01-25T09:02:11;5.83;;;2.90;;
18316;SDS011;9284;52.298;21.164;2024-01-25T09:04:40;7.80;;;3.00;;
18316;SDS011;9284;52.298;21.164;2024-01-25T09:07:10;8.37;;;3.60;;
18316;SDS011;9284;52.298;21.164;2024-01-25T09:09:39;11.23;;;4.40;;
18316;SDS011;9284;52.298;21.164;2024-01-25T09:12:07;6.53;;;3.53;;
18316;SDS011;9284;52.298;21.164;2024-01-25T09:14:38;7.68;;;2.97;;
18316;SDS011;9284;52.298;21.164;2024-01-25T09:17:08;11.13;;;3.67;;
18316;SDS011;9284;52.298;21.164;2024-01-25T09:19:37;7.93;;;3.83;;
18316;SDS011;9284;52.298;21.164;2024-01-25T09:22:06;7.57;;;3.60;;
18316;SDS011;9284;52.298;21.164;2024-01-25T09:24:36;5.20;;;3.03;;
18316;SDS011;9284;52.298;21.164;2024-01-25T09:27:06;6.03;;;3.40;;
18316;SDS011;9284;52.298;21.164;2024-01-25T09:29:35;6.72;;;3.30;;
18316;SDS011;9284;52.298;21.164;2024-01-25T09:32:05;5.60;;;3.53;;
18316;SDS011;9284;52.298;21.164;2024-01-25T09:34:36;7.13;;;3.23;;
18316;SDS011;9284;52.298;21.164;2024-01-25T09:37:06;5.10;;;2.60;;
18316;SDS011;9284;52.298;21.164;2024-01-25T09:39:35;7.47;;;3.40;;
18316;SDS011;9284;52.298;21.164;2024-01-25T09:42:03;4.53;;;3.00;;
18316;SDS011;9284;52.298;21.164;2024-01-25T09:44:33;5.43;;;2.92;;
18316;SDS011;9284;52.298;21.164;2024-01-25T09:47:02;7.28;;;3.47;;
18316;SDS011;9284;52.298;21.164;2024-01-25T09:49:35;8.68;;;3.72;;
18316;SDS011;9284;52.298;21.164;2024-01-25T09:52:04;5.90;;;3.05;;
18316;SDS011;9284;52.298;21.164;2024-01-25T09:54:35;3.67;;;2.70;;
18316;SDS011;9284;52.298;21.164;2024-01-25T09:57:06;6.53;;;3.07;;
18316;SDS011;9284;52.298;21.164;2024-01-25T09:59:38;6.33;;;2.90;;
18316;SDS011;9284;52.298;21.164;2024-01-25T10:02:07;6.67;;;3.67;;
18316;SDS011;9284;52.298;21.164;2024-01-25T10:04:39;4.82;;;2.85;;
18316;SDS011;9284;52.298;21.164;2024-01-25T10:07:08;6.50;;;3.05;;
18316;SDS011;9284;52.298;21.164;2024-01-25T10:09:39;6.95;;;3.22;;
18316;SDS011;9284;52.298;21.164;2024-01-25T10:12:09;6.90;;;3.20;;
18316;SDS011;9284;52.298;21.164;2024-01-25T10:14:44;5.22;;;2.58;;
18316;SDS011;9284;52.298;21.164;2024-01-25T10:17:13;3.87;;;2.10;;
18316;SDS011;9284;52.298;21.164;2024-01-25T10:19:44;4.00;;;2.40;;
18316;SDS011;9284;52.298;21.164;2024-01-25T10:22:13;4.03;;;2.50;;
18316;SDS011;9284;52.298;21.164;2024-01-25T10:24:42;6.20;;;2.63;;
18316;SDS011;9284;52.298;21.164;2024-01-25T10:27:11;6.27;;;2.67;;
18316;SDS011;9284;52.298;21.164;2024-01-25T10:29:39;6.60;;;3.08;;
18316;SDS011;9284;52.298;21.164;2024-01-25T10:32:08;8.48;;;2.78;;
18316;SDS011;9284;52.298;21.164;2024-01-25T10:34:37;3.72;;;2.97;;
18316;SDS011;9284;52.298;21.164;2024-01-25T10:37:08;4.60;;;2.90;;
18316;SDS011;9284;52.298;21.164;2024-01-25T10:39:36;5.75;;;2.92;;
18316;SDS011;9284;52.298;21.164;2024-01-25T10:42:05;4.95;;;2.75;;
18316;SDS011;9284;52.298;21.164;2024-01-25T10:44:35;3.92;;;2.22;;
18316;SDS011;9284;52.298;21.164;2024-01-25T10:47:05;4.43;;;2.13;;
18316;SDS011;9284;52.298;21.164;2024-01-25T10:49:34;3.13;;;2.20;;
18316;SDS011;9284;52.298;21.164;2024-01-25T10:52:04;4.18;;;2.63;;
18316;SDS011;9284;52.298;21.164;2024-01-25T10:54:35;4.63;;;2.53;;
18316;SDS011;9284;52.298;21.164;2024-01-25T10:57:04;6.33;;;2.60;;
18316;SDS011;9284;52.298;21.164;2024-01-25T10:59:33;3.17;;;2.10;;
18316;SDS011;9284;52.298;21.164;2024-01-25T11:02:02;3.42;;;1.95;;
18316;SDS011;9284;52.298;21.164;2024-01-25T11:04:31;2.42;;;1.77;;
18316;SDS011;9284;52.298;21.164;2024-01-25T11:07:04;5.93;;;1.80;;
18316;SDS011;9284;52.298;21.164;2024-01-25T11:09:35;5.07;;;2.47;;
18316;SDS011;9284;52.298;21.164;2024-01-25T11:12:10;3.70;;;1.90;;
18316;SDS011;9284;52.298;21.164;2024-01-25T11:14:40;5.60;;;2.03;;
18316;SDS011;9284;52.298;21.164;2024-01-25T11:17:14;4.15;;;2.60;;
18316;SDS011;9284;52.298;21.164;2024-01-25T11:19:45;3.55;;;2.13;;
18316;SDS011;9284;52.298;21.164;2024-01-25T11:22:16;3.05;;;1.98;;
18316;SDS011;9284;52.298;21.164;2024-01-25T11:24:46;3.95;;;1.90;;
18316;SDS011;9284;52.298;21.164;2024-01-25T11:27:16;3.30;;;2.30;;
18316;SDS011;9284;52.298;21.164;2024-01-25T11:29:44;8.60;;;2.40;;
18316;SDS011;9284;52.298;21.164;2024-01-25T11:32:12;4.18;;;2.42;;
18316;SDS011;9284;52.298;21.164;2024-01-25T11:34:41;4.50;;;2.60;;
18316;SDS011;9284;52.298;21.164;2024-01-25T11:37:10;3.13;;;2.57;;
18316;SDS011;9284;52.298;21.164;2024-01-25T11:39:38;3.25;;;2.45;;
18316;SDS011;9284;52.298;21.164;2024-01-25T11:42:08;6.65;;;3.35;;
18316;SDS011;9284;52.298;21.164;2024-01-25T11:44:36;9.80;;;3.78;;
18316;SDS011;9284;52.298;21.164;2024-01-25T11:47:05;6.93;;;3.95;;
18316;SDS011;9284;52.298;21.164;2024-01-25T11:49:34;7.38;;;3.10;;
18316;SDS011;9284;52.298;21.164;2024-01-25T11:52:03;6.23;;;2.90;;
18316;SDS011;9284;52.298;21.164;2024-01-25T11:54:32;8.00;;;3.50;;
18316;SDS011;9284;52.298;21.164;2024-01-25T11:57:01;15.65;;;7.18;;
18316;SDS011;9284;52.298;21.164;2024-01-25T11:59:31;8.98;;;4.32;;
18316;SDS011;9284;52.298;21.164;2024-01-25T12:01:59;10.80;;;5.80;;
18316;SDS011;9284;52.298;21.164;2024-01-25T12:04:28;7.93;;;3.63;;
18316;SDS011;9284;52.298;21.164;2024-01-25T12:07:01;5.55;;;3.15;;
18316;SDS011;9284;52.298;21.164;2024-01-25T12:09:30;7.30;;;4.70;;
18316;SDS011;9284;52.298;21.164;2024-01-25T12:12:00;7.20;;;4.07;;
18316;SDS011;9284;52.298;21.164;2024-01-25T12:14:28;8.52;;;3.13;;
18316;SDS011;9284;52.298;21.164;2024-01-25T12:16:58;2.20;;;1.53;;
18316;SDS011;9284;52.298;21.164;2024-01-25T12:19:27;3.67;;;2.20;;
18316;SDS011;9284;52.298;21.164;2024-01-25T12:21:56;2.55;;;1.83;;
18316;SDS011;9284;52.298;21.164;2024-01-25T12:24:24;3.33;;;2.35;;
18316;SDS011;9284;52.298;21.164;2024-01-25T12:26:54;3.63;;;2.00;;
18316;SDS011;9284;52.298;21.164;2024-01-25T12:29:22;6.00;;;2.17;;
18316;SDS011;9284;52.298;21.164;2024-01-25T12:31:52;3.57;;;1.90;;
18316;SDS011;9284;52.298;21.164;2024-01-25T12:34:21;5.83;;;2.40;;
18316;SDS011;9284;52.298;21.164;2024-01-25T12:36:52;3.33;;;2.07;;
18316;SDS011;9284;52.298;21.164;2024-01-25T12:39:21;5.80;;;2.75;;
18316;SDS011;9284;52.298;21.164;2024-01-25T12:41:49;4.83;;;2.60;;
18316;SDS011;9284;52.298;21.164;2024-01-25T12:44:18;6.30;;;2.90;;
18316;SDS011;9284;52.298;21.164;2024-01-25T12:46:46;2.67;;;1.90;;
18316;SDS011;9284;52.298;21.164;2024-01-25T12:49:16;7.10;;;3.30;;
18316;SDS011;9284;52.298;21.164;2024-01-25T12:51:48;5.80;;;2.43;;
18316;SDS011;9284;52.298;21.164;2024-01-25T12:54:19;5.07;;;2.70;;
18316;SDS011;9284;52.298;21.164;2024-01-25T12:56:48;4.07;;;2.60;;
18316;SDS011;9284;52.298;21.164;2024-01-25T12:59:17;4.07;;;2.57;;
18316;SDS011;9284;52.298;21.164;2024-01-25T13:01:46;3.67;;;2.37;;
18316;SDS011;9284;52.298;21.164;2024-01-25T13:04:14;5.33;;;2.60;;
18316;SDS011;9284;52.298;21.164;2024-01-25T13:06:44;3.57;;;2.20;;
18316;SDS011;9284;52.298;21.164;2024-01-25T13:09:12;4.73;;;2.13;;
18316;SDS011;9284;52.298;21.164;2024-01-25T13:11:41;3.17;;;2.00;;
18316;SDS011;9284;52.298;21.164;2024-01-25T13:14:09;4.10;;;2.07;;
18316;SDS011;9284;52.298;21.164;2024-01-25T13:16:37;4.90;;;2.30;;
18316;SDS011;9284;52.298;21.164;2024-01-25T13:19:06;5.67;;;2.20;;
18316;SDS011;9284;52.298;21.164;2024-01-25T13:21:35;3.23;;;2.13;;
18316;SDS011;9284;52.298;21.164;2024-01-25T13:24:05;5.17;;;2.60;;
18316;SDS011;9284;52.298;21.164;2024-01-25T13:26:35;4.10;;;2.30;;
18316;SDS011;9284;52.298;21.164;2024-01-25T13:29:03;2.97;;;1.80;;
18316;SDS011;9284;52.298;21.164;2024-01-25T13:31:31;5.20;;;2.97;;
18316;SDS011;9284;52.298;21.164;2024-01-25T13:34:00;2.83;;;1.90;;
18316;SDS011;9284;52.298;21.164;2024-01-25T13:36:28;3.50;;;1.80;;
18316;SDS011;9284;52.298;21.164;2024-01-25T13:38:56;4.27;;;2.10;;
18316;SDS011;9284;52.298;21.164;2024-01-25T13:41:26;3.90;;;2.67;;
18316;SDS011;9284;52.298;21.164;2024-01-25T13:43:55;3.27;;;2.50;;
18316;SDS011;9284;52.298;21.164;2024-01-25T13:46:23;6.47;;;3.17;;
18316;SDS011;9284;52.298;21.164;2024-01-25T13:48:52;4.23;;;2.60;;
18316;SDS011;9284;52.298;21.164;2024-01-25T13:51:20;3.87;;;2.07;;
18316;SDS011;9284;52.298;21.164;2024-01-25T13:53:49;6.43;;;2.13;;
18316;SDS011;9284;52.298;21.164;2024-01-25T13:56:17;2.50;;;1.77;;
18316;SDS011;9284;52.298;21.164;2024-01-25T13:58:47;2.37;;;1.60;;
18316;SDS011;9284;52.298;21.164;2024-01-25T14:01:15;5.07;;;1.97;;
18316;SDS011;9284;52.298;21.164;2024-01-25T14:03:44;4.23;;;2.30;;
18316;SDS011;9284;52.298;21.164;2024-01-25T14:06:12;3.80;;;1.70;;
18316;SDS011;9284;52.298;21.164;2024-01-25T14:08:41;6.40;;;2.93;;
18316;SDS011;9284;52.298;21.164;2024-01-25T14:11:09;4.33;;;2.40;;
18316;SDS011;9284;52.298;21.164;2024-01-25T14:13:38;3.40;;;2.00;;
18316;SDS011;9284;52.298;21.164;2024-01-25T14:16:07;6.87;;;2.20;;
18316;SDS011;9284;52.298;21.164;2024-01-25T14:18:43;4.40;;;2.47;;
18316;SDS011;9284;52.298;21.164;2024-01-25T14:21:12;3.80;;;1.80;;
18316;SDS011;9284;52.298;21.164;2024-01-25T14:23:42;5.07;;;2.00;;
18316;SDS011;9284;52.298;21.164;2024-01-25T14:26:11;3.17;;;2.23;;
18316;SDS011;9284;52.298;21.164;2024-01-25T14:28:40;3.17;;;2.00;;
18316;SDS011;9284;52.298;21.164;2024-01-25T14:31:09;5.77;;;2.50;;
18316;SDS011;9284;52.298;21.164;2024-01-25T14:33:38;2.77;;;1.97;;
18316;SDS011;9284;52.298;21.164;2024-01-25T14:36:11;4.53;;;2.27;;
18316;SDS011;9284;52.298;21.164;2024-01-25T14:38:41;4.13;;;2.50;;
18316;SDS011;9284;52.298;21.164;2024-01-25T14:41:09;3.13;;;2.20;;
18316;SDS011;9284;52.298;21.164;2024-01-25T14:43:37;6.17;;;2.37;;
18316;SDS011;9284;52.298;21.164;2024-01-25T14:46:07;7.63;;;3.10;;
18316;SDS011;9284;52.298;21.164;2024-01-25T14:48:36;4.90;;;2.90;;
18316;SDS011;9284;52.298;21.164;2024-01-25T14:51:05;5.03;;;2.33;;
18316;SDS011;9284;52.298;21.164;2024-01-25T14:53:34;2.77;;;1.83;;